sensor_id;sensor_type;location;lat;lon;timestamp;P1;durP1;ratioP1;P2;durP2;ratioP2
30998;SDS011;20549;50.042;8.968;2023-11-19T00:01:04;2.70;;;2.50;;
30998;SDS011;20549;50.042;8.968;2023-11-19T00:03:31;3.10;;;2.80;;
30998;SDS011;20549;50.042;8.968;2023-11-19T00:05:57;3.20;;;3.00;;
30998;SDS011;20549;50.042;8.968;2023-11-19T00:08:24;2.80;;;2.60;;
30998;SDS011;20549;50.042;8.968;2023-11-19T00:10:51;2.87;;;2.67;;
30998;SDS011;20549;50.042;8.968;2023-11-19T00:13:17;2.80;;;2.60;;
30998;SDS011;20549;50.042;8.968;2023-11-19T00:15:44;3.70;;;3.20;;
30998;SDS011;20549;50.042;8.968;2023-11-19T00:18:10;2.80;;;2.60;;
30998;SDS011;20549;50.042;8.968;2023-11-19T00:20:37;2.83;;;2.63;;
30998;SDS011;20549;50.042;8.968;2023-11-19T00:23:03;2.50;;;2.40;;
30998;SDS011;20549;50.042;8.968;2023-11-19T00:25:30;2.97;;;2.37;;
30998;SDS011;20549;50.042;8.968;2023-11-19T00:27:57;2.83;;;2.40;;
30998;SDS011;20549;50.042;8.968;2023-11-19T00:30:23;2.37;;;2.20;;
30998;SDS011;20549;50.042;8.968;2023-11-19T00:32:50;2.33;;;2.13;;
30998;SDS011;20549;50.042;8.968;2023-11-19T00:35:16;2.27;;;2.13;;
30998;SDS011;20549;50.042;8.968;2023-11-19T00:37:43;3.10;;;2.70;;
30998;SDS011;20549;50.042;8.968;2023-11-19T00:40:10;4.30;;;2.70;;
30998;SDS011;20549;50.042;8.968;2023-11-19T00:42:36;4.70;;;3.20;;
30998;SDS011;20549;50.042;8.968;2023-11-19T00:45:03;3.27;;;2.97;;
30998;SDS011;20549;50.042;8.968;2023-11-19T00:47:29;3.23;;;2.87;;
30998;SDS011;20549;50.042;8.968;2023-11-19T00:49:56;2.97;;;2.67;;
30998;SDS011;20549;50.042;8.968;2023-11-19T00:52:23;2.80;;;2.60;;
30998;SDS011;20549;50.042;8.968;2023-11-19T00:54:49;3.10;;;2.80;;
30998;SDS011;20549;50.042;8.968;2023-11-19T00:57:16;2.87;;;2.50;;
30998;SDS011;20549;50.042;8.968;2023-11-19T00:59:42;2.63;;;2.43;;
30998;SDS011;20549;50.042;8.968;2023-11-19T01:02:09;3.30;;;2.67;;
30998;SDS011;20549;50.042;8.968;2023-11-19T01:04:36;2.93;;;2.73;;
30998;SDS011;20549;50.042;8.968;2023-11-19T01:07:02;3.97;;;3.07;;
30998;SDS011;20549;50.042;8.968;2023-11-19T01:09:32;3.17;;;2.87;;
30998;SDS011;20549;50.042;8.968;2023-11-19T01:11:58;3.13;;;2.90;;
30998;SDS011;20549;50.042;8.968;2023-11-19T01:14:25;2.43;;;2.20;;
30998;SDS011;20549;50.042;8.968;2023-11-19T01:16:51;3.00;;;2.70;;
30998;SDS011;20549;50.042;8.968;2023-11-19T01:19:18;2.23;;;2.03;;
30998;SDS011;20549;50.042;8.968;2023-11-19T01:21:44;2.73;;;2.37;;
30998;SDS011;20549;50.042;8.968;2023-11-19T01:24:11;2.53;;;2.33;;
30998;SDS011;20549;50.042;8.968;2023-11-19T01:26:37;2.30;;;2.20;;
30998;SDS011;20549;50.042;8.968;2023-11-19T01:29:04;2.50;;;2.30;;
30998;SDS011;20549;50.042;8.968;2023-11-19T01:31:31;2.00;;;1.90;;
30998;SDS011;20549;50.042;8.968;2023-11-19T01:33:57;3.07;;;2.27;;
30998;SDS011;20549;50.042;8.968;2023-11-19T01:36:24;1.93;;;1.83;;
30998;SDS011;20549;50.042;8.968;2023-11-19T01:38:50;1.53;;;1.53;;
30998;SDS011;20549;50.042;8.968;2023-11-19T01:41:17;1.70;;;1.60;;
30998;SDS011;20549;50.042;8.968;2023-11-19T01:43:44;1.57;;;1.47;;
30998;SDS011;20549;50.042;8.968;2023-11-19T01:46:10;1.30;;;1.20;;
30998;SDS011;20549;50.042;8.968;2023-11-19T01:48:38;1.33;;;1.27;;
30998;SDS011;20549;50.042;8.968;2023-11-19T01:51:03;1.53;;;1.40;;
30998;SDS011;20549;50.042;8.968;2023-11-19T01:53:30;1.23;;;1.23;;
30998;SDS011;20549;50.042;8.968;2023-11-19T01:55:57;1.00;;;1.00;;
30998;SDS011;20549;50.042;8.968;2023-11-19T01:58:23;1.20;;;1.20;;
30998;SDS011;20549;50.042;8.968;2023-11-19T02:00:50;1.17;;;1.13;;
30998;SDS011;20549;50.042;8.968;2023-11-19T02:03:16;1.53;;;0.90;;
30998;SDS011;20549;50.042;8.968;2023-11-19T02:05:43;1.27;;;1.10;;
30998;SDS011;20549;50.042;8.968;2023-11-19T02:08:09;1.20;;;1.20;;
30998;SDS011;20549;50.042;8.968;2023-11-19T02:10:36;1.00;;;1.00;;
30998;SDS011;20549;50.042;8.968;2023-11-19T02:13:03;1.17;;;1.07;;
30998;SDS011;20549;50.042;8.968;2023-11-19T02:15:29;1.00;;;1.00;;
30998;SDS011;20549;50.042;8.968;2023-11-19T02:17:56;1.80;;;1.13;;
30998;SDS011;20549;50.042;8.968;2023-11-19T02:20:22;1.40;;;1.30;;
30998;SDS011;20549;50.042;8.968;2023-11-19T02:22:49;0.70;;;0.70;;
30998;SDS011;20549;50.042;8.968;2023-11-19T02:25:23;0.60;;;0.60;;
30998;SDS011;20549;50.042;8.968;2023-11-19T02:27:58;0.80;;;0.80;;
30998;SDS011;20549;50.042;8.968;2023-11-19T02:30:23;0.87;;;0.87;;
30998;SDS011;20549;50.042;8.968;2023-11-19T02:32:53;0.80;;;0.80;;
30998;SDS011;20549;50.042;8.968;2023-11-19T02:35:19;0.70;;;0.70;;
30998;SDS011;20549;50.042;8.968;2023-11-19T02:37:46;0.80;;;0.80;;
30998;SDS011;20549;50.042;8.968;2023-11-19T02:40:12;1.00;;;1.00;;
30998;SDS011;20549;50.042;8.968;2023-11-19T02:42:39;0.73;;;0.73;;
30998;SDS011;20549;50.042;8.968;2023-11-19T02:45:05;0.73;;;0.73;;
30998;SDS011;20549;50.042;8.968;2023-11-19T02:47:32;1.17;;;0.90;;
30998;SDS011;20549;50.042;8.968;2023-11-19T02:49:59;1.27;;;1.00;;
30998;SDS011;20549;50.042;8.968;2023-11-19T02:52:25;0.70;;;0.70;;
30998;SDS011;20549;50.042;8.968;2023-11-19T02:54:52;0.70;;;0.70;;
30998;SDS011;20549;50.042;8.968;2023-11-19T02:57:18;0.67;;;0.67;;
30998;SDS011;20549;50.042;8.968;2023-11-19T02:59:45;1.33;;;0.60;;
30998;SDS011;20549;50.042;8.968;2023-11-19T03:02:12;0.60;;;0.60;;
30998;SDS011;20549;50.042;8.968;2023-11-19T03:04:38;0.77;;;0.77;;
30998;SDS011;20549;50.042;8.968;2023-11-19T03:07:11;0.50;;;0.50;;
30998;SDS011;20549;50.042;8.968;2023-11-19T03:09:38;0.50;;;0.50;;
30998;SDS011;20549;50.042;8.968;2023-11-19T03:12:04;0.60;;;0.60;;
30998;SDS011;20549;50.042;8.968;2023-11-19T03:14:31;0.50;;;0.50;;
30998;SDS011;20549;50.042;8.968;2023-11-19T03:16:57;0.40;;;0.40;;
30998;SDS011;20549;50.042;8.968;2023-11-19T03:19:24;1.37;;;0.40;;
30998;SDS011;20549;50.042;8.968;2023-11-19T03:21:51;2.15;;;0.55;;
30998;SDS011;20549;50.042;8.968;2023-11-19T03:24:17;0.45;;;0.45;;
30998;SDS011;20549;50.042;8.968;2023-11-19T03:26:48;0.50;;;0.50;;
30998;SDS011;20549;50.042;8.968;2023-11-19T03:29:10;0.60;;;0.60;;
30998;SDS011;20549;50.042;8.968;2023-11-19T03:31:41;0.30;;;0.30;;
30998;SDS011;20549;50.042;8.968;2023-11-19T03:34:03;0.57;;;0.57;;
30998;SDS011;20549;50.042;8.968;2023-11-19T03:36:33;0.60;;;0.60;;
30998;SDS011;20549;50.042;8.968;2023-11-19T03:38:59;0.40;;;0.40;;
30998;SDS011;20549;50.042;8.968;2023-11-19T03:41:26;0.80;;;0.50;;
30998;SDS011;20549;50.042;8.968;2023-11-19T03:43:53;0.40;;;0.40;;
30998;SDS011;20549;50.042;8.968;2023-11-19T03:46:19;0.82;;;0.70;;
30998;SDS011;20549;50.042;8.968;2023-11-19T03:48:49;0.50;;;0.40;;
30998;SDS011;20549;50.042;8.968;2023-11-19T03:51:16;0.40;;;0.40;;
30998;SDS011;20549;50.042;8.968;2023-11-19T03:53:42;0.47;;;0.47;;
30998;SDS011;20549;50.042;8.968;2023-11-19T03:56:09;1.10;;;0.60;;
30998;SDS011;20549;50.042;8.968;2023-11-19T03:58:38;0.30;;;0.30;;
30998;SDS011;20549;50.042;8.968;2023-11-19T04:01:04;0.98;;;0.53;;
30998;SDS011;20549;50.042;8.968;2023-11-19T04:03:31;0.40;;;0.40;;
30998;SDS011;20549;50.042;8.968;2023-11-19T04:05:57;0.95;;;0.40;;
30998;SDS011;20549;50.042;8.968;2023-11-19T04:08:24;0.50;;;0.50;;
30998;SDS011;20549;50.042;8.968;2023-11-19T04:10:50;0.45;;;0.45;;
30998;SDS011;20549;50.042;8.968;2023-11-19T04:13:17;0.50;;;0.50;;
30998;SDS011;20549;50.042;8.968;2023-11-19T04:15:44;1.07;;;0.50;;
30998;SDS011;20549;50.042;8.968;2023-11-19T04:18:10;0.85;;;0.85;;
30998;SDS011;20549;50.042;8.968;2023-11-19T04:20:37;0.65;;;0.65;;
30998;SDS011;20549;50.042;8.968;2023-11-19T04:23:03;1.22;;;0.57;;
30998;SDS011;20549;50.042;8.968;2023-11-19T04:25:30;0.85;;;0.50;;
30998;SDS011;20549;50.042;8.968;2023-11-19T04:27:57;0.60;;;0.60;;
30998;SDS011;20549;50.042;8.968;2023-11-19T04:30:23;0.42;;;0.42;;
30998;SDS011;20549;50.042;8.968;2023-11-19T04:32:50;0.45;;;0.45;;
30998;SDS011;20549;50.042;8.968;2023-11-19T04:35:16;1.15;;;0.70;;
30998;SDS011;20549;50.042;8.968;2023-11-19T04:37:43;1.52;;;0.53;;
30998;SDS011;20549;50.042;8.968;2023-11-19T04:40:10;0.50;;;0.50;;
30998;SDS011;20549;50.042;8.968;2023-11-19T04:42:36;0.30;;;0.30;;
30998;SDS011;20549;50.042;8.968;2023-11-19T04:45:03;1.47;;;0.57;;
30998;SDS011;20549;50.042;8.968;2023-11-19T04:47:29;0.40;;;0.40;;
30998;SDS011;20549;50.042;8.968;2023-11-19T04:49:56;0.50;;;0.50;;
30998;SDS011;20549;50.042;8.968;2023-11-19T04:52:23;0.70;;;0.70;;
30998;SDS011;20549;50.042;8.968;2023-11-19T04:54:49;0.30;;;0.30;;
30998;SDS011;20549;50.042;8.968;2023-11-19T04:57:16;0.70;;;0.53;;
30998;SDS011;20549;50.042;8.968;2023-11-19T04:59:42;0.53;;;0.53;;
30998;SDS011;20549;50.042;8.968;2023-11-19T05:02:09;0.30;;;0.30;;
30998;SDS011;20549;50.042;8.968;2023-11-19T05:04:35;0.60;;;0.60;;
30998;SDS011;20549;50.042;8.968;2023-11-19T05:07:02;0.88;;;0.40;;
30998;SDS011;20549;50.042;8.968;2023-11-19T05:09:29;0.47;;;0.40;;
30998;SDS011;20549;50.042;8.968;2023-11-19T05:11:55;1.82;;;0.75;;
30998;SDS011;20549;50.042;8.968;2023-11-19T05:14:22;1.12;;;0.50;;
30998;SDS011;20549;50.042;8.968;2023-11-19T05:16:48;0.40;;;0.40;;
30998;SDS011;20549;50.042;8.968;2023-11-19T05:19:15;0.50;;;0.50;;
30998;SDS011;20549;50.042;8.968;2023-11-19T05:21:42;0.42;;;0.35;;
30998;SDS011;20549;50.042;8.968;2023-11-19T05:24:08;0.50;;;0.50;;
30998;SDS011;20549;50.042;8.968;2023-11-19T05:26:35;0.93;;;0.60;;
30998;SDS011;20549;50.042;8.968;2023-11-19T05:29:01;0.50;;;0.50;;
30998;SDS011;20549;50.042;8.968;2023-11-19T05:31:28;1.15;;;0.62;;
30998;SDS011;20549;50.042;8.968;2023-11-19T05:33:55;1.87;;;0.78;;
30998;SDS011;20549;50.042;8.968;2023-11-19T05:36:21;1.57;;;0.80;;
30998;SDS011;20549;50.042;8.968;2023-11-19T05:38:48;1.27;;;0.75;;
30998;SDS011;20549;50.042;8.968;2023-11-19T05:41:14;0.53;;;0.53;;
30998;SDS011;20549;50.042;8.968;2023-11-19T05:43:41;2.35;;;0.88;;
30998;SDS011;20549;50.042;8.968;2023-11-19T05:46:07;1.10;;;1.00;;
30998;SDS011;20549;50.042;8.968;2023-11-19T05:48:34;0.70;;;0.70;;
30998;SDS011;20549;50.042;8.968;2023-11-19T05:51:01;0.60;;;0.60;;
30998;SDS011;20549;50.042;8.968;2023-11-19T05:53:27;0.70;;;0.70;;
30998;SDS011;20549;50.042;8.968;2023-11-19T05:55:54;0.75;;;0.75;;
30998;SDS011;20549;50.042;8.968;2023-11-19T05:58:24;0.80;;;0.80;;
30998;SDS011;20549;50.042;8.968;2023-11-19T06:00:47;0.88;;;0.88;;
30998;SDS011;20549;50.042;8.968;2023-11-19T06:03:14;0.90;;;0.90;;
30998;SDS011;20549;50.042;8.968;2023-11-19T06:05:40;0.88;;;0.88;;
30998;SDS011;20549;50.042;8.968;2023-11-19T06:08:07;2.52;;;0.98;;
30998;SDS011;20549;50.042;8.968;2023-11-19T06:10:33;0.90;;;0.90;;
30998;SDS011;20549;50.042;8.968;2023-11-19T06:13:00;1.30;;;1.10;;
30998;SDS011;20549;50.042;8.968;2023-11-19T06:15:27;1.00;;;1.00;;
30998;SDS011;20549;50.042;8.968;2023-11-19T06:17:53;1.00;;;1.00;;
30998;SDS011;20549;50.042;8.968;2023-11-19T06:20:20;1.30;;;1.20;;
30998;SDS011;20549;50.042;8.968;2023-11-19T06:22:46;1.20;;;1.10;;
30998;SDS011;20549;50.042;8.968;2023-11-19T06:25:13;1.47;;;1.22;;
30998;SDS011;20549;50.042;8.968;2023-11-19T06:27:42;0.70;;;0.70;;
30998;SDS011;20549;50.042;8.968;2023-11-19T06:30:06;1.25;;;1.15;;
30998;SDS011;20549;50.042;8.968;2023-11-19T06:32:33;1.20;;;1.20;;
30998;SDS011;20549;50.042;8.968;2023-11-19T06:34:59;1.10;;;1.05;;
30998;SDS011;20549;50.042;8.968;2023-11-19T06:37:26;1.22;;;1.22;;
30998;SDS011;20549;50.042;8.968;2023-11-19T06:39:53;1.37;;;0.98;;
30998;SDS011;20549;50.042;8.968;2023-11-19T06:42:19;1.30;;;1.20;;
30998;SDS011;20549;50.042;8.968;2023-11-19T06:44:46;1.95;;;1.30;;
30998;SDS011;20549;50.042;8.968;2023-11-19T06:47:12;1.57;;;1.40;;
30998;SDS011;20549;50.042;8.968;2023-11-19T06:49:39;2.12;;;1.40;;
30998;SDS011;20549;50.042;8.968;2023-11-19T06:52:05;1.45;;;1.35;;
30998;SDS011;20549;50.042;8.968;2023-11-19T06:54:32;1.60;;;1.50;;
30998;SDS011;20549;50.042;8.968;2023-11-19T06:56:59;1.70;;;1.55;;
30998;SDS011;20549;50.042;8.968;2023-11-19T06:59:25;3.05;;;1.60;;
30998;SDS011;20549;50.042;8.968;2023-11-19T07:01:52;1.42;;;1.20;;
30998;SDS011;20549;50.042;8.968;2023-11-19T07:04:18;1.37;;;1.27;;
30998;SDS011;20549;50.042;8.968;2023-11-19T07:06:45;1.67;;;1.57;;
30998;SDS011;20549;50.042;8.968;2023-11-19T07:09:12;1.40;;;1.30;;
30998;SDS011;20549;50.042;8.968;2023-11-19T07:11:39;1.40;;;1.30;;
30998;SDS011;20549;50.042;8.968;2023-11-19T07:14:05;1.27;;;1.17;;
30998;SDS011;20549;50.042;8.968;2023-11-19T07:16:35;1.42;;;1.20;;
30998;SDS011;20549;50.042;8.968;2023-11-19T07:18:58;1.10;;;1.10;;
30998;SDS011;20549;50.042;8.968;2023-11-19T07:21:25;1.37;;;1.00;;
30998;SDS011;20549;50.042;8.968;2023-11-19T07:23:51;0.75;;;0.75;;
30998;SDS011;20549;50.042;8.968;2023-11-19T07:26:18;0.95;;;0.95;;
30998;SDS011;20549;50.042;8.968;2023-11-19T07:28:44;1.10;;;1.00;;
30998;SDS011;20549;50.042;8.968;2023-11-19T07:31:11;1.07;;;0.98;;
30998;SDS011;20549;50.042;8.968;2023-11-19T07:33:38;1.02;;;0.93;;
30998;SDS011;20549;50.042;8.968;2023-11-19T07:36:04;0.85;;;0.85;;
30998;SDS011;20549;50.042;8.968;2023-11-19T07:38:31;1.12;;;0.70;;
30998;SDS011;20549;50.042;8.968;2023-11-19T07:40:57;0.98;;;0.98;;
30998;SDS011;20549;50.042;8.968;2023-11-19T07:43:24;1.15;;;0.72;;
30998;SDS011;20549;50.042;8.968;2023-11-19T07:45:50;0.90;;;0.90;;
30998;SDS011;20549;50.042;8.968;2023-11-19T07:48:17;0.70;;;0.70;;
30998;SDS011;20549;50.042;8.968;2023-11-19T07:50:44;1.05;;;1.05;;
30998;SDS011;20549;50.042;8.968;2023-11-19T07:53:10;0.98;;;0.98;;
30998;SDS011;20549;50.042;8.968;2023-11-19T07:55:37;1.62;;;0.90;;
30998;SDS011;20549;50.042;8.968;2023-11-19T07:58:03;1.00;;;1.00;;
30998;SDS011;20549;50.042;8.968;2023-11-19T08:00:30;1.27;;;1.00;;
30998;SDS011;20549;50.042;8.968;2023-11-19T08:02:57;0.90;;;0.90;;
30998;SDS011;20549;50.042;8.968;2023-11-19T08:05:23;1.52;;;1.07;;
30998;SDS011;20549;50.042;8.968;2023-11-19T08:07:50;1.02;;;0.80;;
30998;SDS011;20549;50.042;8.968;2023-11-19T08:10:16;0.68;;;0.65;;
30998;SDS011;20549;50.042;8.968;2023-11-19T08:12:43;1.27;;;1.07;;
30998;SDS011;20549;50.042;8.968;2023-11-19T08:15:09;2.33;;;1.50;;
30998;SDS011;20549;50.042;8.968;2023-11-19T08:17:36;1.10;;;1.00;;
30998;SDS011;20549;50.042;8.968;2023-11-19T08:20:03;1.15;;;1.10;;
30998;SDS011;20549;50.042;8.968;2023-11-19T08:22:29;0.82;;;0.80;;
30998;SDS011;20549;50.042;8.968;2023-11-19T08:24:56;1.98;;;1.10;;
30998;SDS011;20549;50.042;8.968;2023-11-19T08:27:22;1.70;;;1.07;;
30998;SDS011;20549;50.042;8.968;2023-11-19T08:29:49;1.40;;;1.00;;
30998;SDS011;20549;50.042;8.968;2023-11-19T08:32:16;0.95;;;0.88;;
30998;SDS011;20549;50.042;8.968;2023-11-19T08:34:42;1.00;;;1.00;;
30998;SDS011;20549;50.042;8.968;2023-11-19T08:37:09;2.10;;;1.10;;
30998;SDS011;20549;50.042;8.968;2023-11-19T08:39:35;2.55;;;0.95;;
30998;SDS011;20549;50.042;8.968;2023-11-19T08:42:02;1.30;;;1.10;;
30998;SDS011;20549;50.042;8.968;2023-11-19T08:44:29;1.02;;;0.90;;
30998;SDS011;20549;50.042;8.968;2023-11-19T08:46:55;0.90;;;0.90;;
30998;SDS011;20549;50.042;8.968;2023-11-19T08:49:22;2.10;;;0.95;;
30998;SDS011;20549;50.042;8.968;2023-11-19T08:51:48;0.88;;;0.88;;
30998;SDS011;20549;50.042;8.968;2023-11-19T08:54:15;0.98;;;0.90;;
30998;SDS011;20549;50.042;8.968;2023-11-19T08:56:41;1.30;;;0.90;;
30998;SDS011;20549;50.042;8.968;2023-11-19T08:59:08;2.83;;;1.00;;
30998;SDS011;20549;50.042;8.968;2023-11-19T09:01:35;1.85;;;1.17;;
30998;SDS011;20549;50.042;8.968;2023-11-19T09:04:01;2.08;;;1.30;;
30998;SDS011;20549;50.042;8.968;2023-11-19T09:06:28;1.47;;;1.37;;
30998;SDS011;20549;50.042;8.968;2023-11-19T09:08:55;1.42;;;1.32;;
30998;SDS011;20549;50.042;8.968;2023-11-19T09:11:21;2.00;;;1.37;;
30998;SDS011;20549;50.042;8.968;2023-11-19T09:13:48;1.67;;;1.57;;
30998;SDS011;20549;50.042;8.968;2023-11-19T09:16:14;1.62;;;1.35;;
30998;SDS011;20549;50.042;8.968;2023-11-19T09:18:41;2.87;;;1.65;;
30998;SDS011;20549;50.042;8.968;2023-11-19T09:21:07;1.30;;;1.20;;
30998;SDS011;20549;50.042;8.968;2023-11-19T09:23:34;3.00;;;1.30;;
30998;SDS011;20549;50.042;8.968;2023-11-19T09:26:01;1.87;;;1.10;;
30998;SDS011;20549;50.042;8.968;2023-11-19T09:28:27;1.85;;;1.50;;
30998;SDS011;20549;50.042;8.968;2023-11-19T09:30:54;1.77;;;1.17;;
30998;SDS011;20549;50.042;8.968;2023-11-19T09:33:20;3.92;;;1.77;;
30998;SDS011;20549;50.042;8.968;2023-11-19T09:35:47;3.62;;;1.67;;
30998;SDS011;20549;50.042;8.968;2023-11-19T09:38:14;0.88;;;0.85;;
30998;SDS011;20549;50.042;8.968;2023-11-19T09:40:40;1.42;;;1.32;;
30998;SDS011;20549;50.042;8.968;2023-11-19T09:43:07;1.57;;;1.17;;
30998;SDS011;20549;50.042;8.968;2023-11-19T09:45:39;2.90;;;1.37;;
30998;SDS011;20549;50.042;8.968;2023-11-19T09:48:00;1.85;;;1.40;;
30998;SDS011;20549;50.042;8.968;2023-11-19T09:50:26;1.67;;;1.20;;
30998;SDS011;20549;50.042;8.968;2023-11-19T09:52:53;2.05;;;1.00;;
30998;SDS011;20549;50.042;8.968;2023-11-19T09:55:20;1.55;;;1.22;;
30998;SDS011;20549;50.042;8.968;2023-11-19T09:57:46;3.05;;;1.40;;
30998;SDS011;20549;50.042;8.968;2023-11-19T10:00:13;2.35;;;1.30;;
30998;SDS011;20549;50.042;8.968;2023-11-19T10:02:39;1.60;;;1.30;;
30998;SDS011;20549;50.042;8.968;2023-11-19T10:05:06;2.77;;;0.85;;
30998;SDS011;20549;50.042;8.968;2023-11-19T10:07:33;1.50;;;1.20;;
30998;SDS011;20549;50.042;8.968;2023-11-19T10:10:02;1.90;;;1.07;;
30998;SDS011;20549;50.042;8.968;2023-11-19T10:12:31;1.32;;;1.00;;
30998;SDS011;20549;50.042;8.968;2023-11-19T10:14:58;5.17;;;1.85;;
30998;SDS011;20549;50.042;8.968;2023-11-19T10:17:30;1.90;;;1.20;;
30998;SDS011;20549;50.042;8.968;2023-11-19T10:19:54;2.08;;;1.42;;
30998;SDS011;20549;50.042;8.968;2023-11-19T10:22:22;1.90;;;1.35;;
30998;SDS011;20549;50.042;8.968;2023-11-19T10:27:10;2.22;;;1.98;;
30998;SDS011;20549;50.042;8.968;2023-11-19T10:29:37;2.50;;;1.22;;
30998;SDS011;20549;50.042;8.968;2023-11-19T10:32:03;2.15;;;1.20;;
30998;SDS011;20549;50.042;8.968;2023-11-19T10:34:30;1.60;;;1.10;;
30998;SDS011;20549;50.042;8.968;2023-11-19T10:36:56;3.55;;;1.35;;
30998;SDS011;20549;50.042;8.968;2023-11-19T10:39:23;2.70;;;1.17;;
30998;SDS011;20549;50.042;8.968;2023-11-19T10:41:49;2.92;;;1.12;;
30998;SDS011;20549;50.042;8.968;2023-11-19T10:44:32;1.40;;;1.10;;
30998;SDS011;20549;50.042;8.968;2023-11-19T10:46:58;3.60;;;1.05;;
30998;SDS011;20549;50.042;8.968;2023-11-19T10:49:24;2.10;;;1.30;;
30998;SDS011;20549;50.042;8.968;2023-11-19T10:51:51;3.87;;;1.80;;
30998;SDS011;20549;50.042;8.968;2023-11-19T10:54:18;4.17;;;1.60;;
30998;SDS011;20549;50.042;8.968;2023-11-19T10:56:44;1.98;;;1.22;;
30998;SDS011;20549;50.042;8.968;2023-11-19T10:59:10;2.62;;;1.27;;
30998;SDS011;20549;50.042;8.968;2023-11-19T11:01:40;2.15;;;1.35;;
30998;SDS011;20549;50.042;8.968;2023-11-19T11:04:06;5.12;;;1.40;;
30998;SDS011;20549;50.042;8.968;2023-11-19T11:06:33;2.40;;;1.10;;
30998;SDS011;20549;50.042;8.968;2023-11-19T11:08:59;3.72;;;1.30;;
30998;SDS011;20549;50.042;8.968;2023-11-19T11:11:26;27.70;;;2.70;;
30998;SDS011;20549;50.042;8.968;2023-11-19T11:13:52;3.80;;;1.55;;
30998;SDS011;20549;50.042;8.968;2023-11-19T11:16:19;4.70;;;1.75;;
30998;SDS011;20549;50.042;8.968;2023-11-19T11:18:46;2.67;;;1.20;;
30998;SDS011;20549;50.042;8.968;2023-11-19T11:21:13;2.72;;;1.37;;
30998;SDS011;20549;50.042;8.968;2023-11-19T11:23:47;4.70;;;1.55;;
30998;SDS011;20549;50.042;8.968;2023-11-19T11:26:22;3.02;;;1.45;;
30998;SDS011;20549;50.042;8.968;2023-11-19T11:28:56;6.62;;;1.98;;
30998;SDS011;20549;50.042;8.968;2023-11-19T11:31:34;3.72;;;1.52;;
30998;SDS011;20549;50.042;8.968;2023-11-19T11:34:17;5.35;;;1.98;;
30998;SDS011;20549;50.042;8.968;2023-11-19T11:36:45;2.65;;;1.37;;
30998;SDS011;20549;50.042;8.968;2023-11-19T11:39:15;3.52;;;1.47;;
30998;SDS011;20549;50.042;8.968;2023-11-19T11:41:41;4.65;;;1.35;;
30998;SDS011;20549;50.042;8.968;2023-11-19T11:44:08;5.17;;;2.20;;
30998;SDS011;20549;50.042;8.968;2023-11-19T11:49:07;3.47;;;1.70;;
30998;SDS011;20549;50.042;8.968;2023-11-19T11:54:09;3.25;;;1.40;;
30998;SDS011;20549;50.042;8.968;2023-11-19T11:56:38;4.10;;;1.57;;
30998;SDS011;20549;50.042;8.968;2023-11-19T11:59:08;3.00;;;1.35;;
30998;SDS011;20549;50.042;8.968;2023-11-19T12:01:59;3.85;;;1.47;;
30998;SDS011;20549;50.042;8.968;2023-11-19T12:04:26;2.45;;;1.60;;
30998;SDS011;20549;50.042;8.968;2023-11-19T12:07:05;2.85;;;1.40;;
30998;SDS011;20549;50.042;8.968;2023-11-19T12:09:31;4.08;;;1.95;;
30998;SDS011;20549;50.042;8.968;2023-11-19T12:12:07;4.28;;;1.62;;
30998;SDS011;20549;50.042;8.968;2023-11-19T12:15:04;6.72;;;2.72;;
30998;SDS011;20549;50.042;8.968;2023-11-19T12:20:00;2.33;;;1.72;;
30998;SDS011;20549;50.042;8.968;2023-11-19T12:22:26;5.30;;;1.67;;
30998;SDS011;20549;50.042;8.968;2023-11-19T12:24:56;3.75;;;1.45;;
30998;SDS011;20549;50.042;8.968;2023-11-19T12:27:22;4.20;;;2.40;;
30998;SDS011;20549;50.042;8.968;2023-11-19T12:29:49;3.58;;;1.55;;
30998;SDS011;20549;50.042;8.968;2023-11-19T12:32:15;2.52;;;1.27;;
30998;SDS011;20549;50.042;8.968;2023-11-19T12:34:42;3.37;;;1.82;;
30998;SDS011;20549;50.042;8.968;2023-11-19T12:37:09;3.67;;;1.85;;
30998;SDS011;20549;50.042;8.968;2023-11-19T12:39:35;6.70;;;2.00;;
30998;SDS011;20549;50.042;8.968;2023-11-19T12:42:02;4.62;;;1.55;;
30998;SDS011;20549;50.042;8.968;2023-11-19T12:44:28;4.35;;;1.32;;
30998;SDS011;20549;50.042;8.968;2023-11-19T12:47:05;2.62;;;1.25;;
30998;SDS011;20549;50.042;8.968;2023-11-19T12:49:32;2.85;;;1.80;;
30998;SDS011;20549;50.042;8.968;2023-11-19T12:51:58;3.65;;;2.02;;
30998;SDS011;20549;50.042;8.968;2023-11-19T12:54:37;4.92;;;2.15;;
30998;SDS011;20549;50.042;8.968;2023-11-19T12:57:03;5.67;;;2.58;;
30998;SDS011;20549;50.042;8.968;2023-11-19T12:59:30;2.52;;;1.65;;
30998;SDS011;20549;50.042;8.968;2023-11-19T13:01:57;4.00;;;1.75;;
30998;SDS011;20549;50.042;8.968;2023-11-19T13:04:23;4.40;;;1.92;;
30998;SDS011;20549;50.042;8.968;2023-11-19T13:06:52;3.72;;;1.70;;
30998;SDS011;20549;50.042;8.968;2023-11-19T13:09:25;3.70;;;1.80;;
30998;SDS011;20549;50.042;8.968;2023-11-19T13:11:54;5.40;;;1.77;;
30998;SDS011;20549;50.042;8.968;2023-11-19T13:14:21;2.22;;;1.30;;
30998;SDS011;20549;50.042;8.968;2023-11-19T13:16:47;4.72;;;1.22;;
30998;SDS011;20549;50.042;8.968;2023-11-19T13:19:14;4.47;;;1.42;;
30998;SDS011;20549;50.042;8.968;2023-11-19T13:21:40;3.75;;;1.67;;
30998;SDS011;20549;50.042;8.968;2023-11-19T13:24:07;6.50;;;1.98;;
30998;SDS011;20549;50.042;8.968;2023-11-19T13:26:34;5.17;;;2.50;;
30998;SDS011;20549;50.042;8.968;2023-11-19T13:29:03;3.70;;;1.80;;
30998;SDS011;20549;50.042;8.968;2023-11-19T13:31:29;3.62;;;1.70;;
30998;SDS011;20549;50.042;8.968;2023-11-19T13:33:56;3.40;;;1.65;;
30998;SDS011;20549;50.042;8.968;2023-11-19T13:36:23;7.03;;;2.08;;
30998;SDS011;20549;50.042;8.968;2023-11-19T13:38:49;3.62;;;1.75;;
30998;SDS011;20549;50.042;8.968;2023-11-19T13:41:16;3.30;;;1.45;;
30998;SDS011;20549;50.042;8.968;2023-11-19T13:43:42;4.70;;;2.40;;
30998;SDS011;20549;50.042;8.968;2023-11-19T13:46:09;4.50;;;1.80;;
30998;SDS011;20549;50.042;8.968;2023-11-19T13:48:36;3.92;;;1.82;;
30998;SDS011;20549;50.042;8.968;2023-11-19T13:51:02;3.65;;;1.82;;
30998;SDS011;20549;50.042;8.968;2023-11-19T13:53:29;2.87;;;1.47;;
30998;SDS011;20549;50.042;8.968;2023-11-19T13:55:55;2.87;;;1.52;;
30998;SDS011;20549;50.042;8.968;2023-11-19T13:58:22;3.25;;;1.80;;
30998;SDS011;20549;50.042;8.968;2023-11-19T14:00:48;4.28;;;1.50;;
30998;SDS011;20549;50.042;8.968;2023-11-19T14:03:15;3.90;;;1.50;;
30998;SDS011;20549;50.042;8.968;2023-11-19T14:05:42;2.72;;;1.40;;
30998;SDS011;20549;50.042;8.968;2023-11-19T14:08:08;3.37;;;1.45;;
30998;SDS011;20549;50.042;8.968;2023-11-19T14:10:38;3.10;;;1.57;;
30998;SDS011;20549;50.042;8.968;2023-11-19T14:13:07;4.55;;;1.62;;
30998;SDS011;20549;50.042;8.968;2023-11-19T14:15:34;2.90;;;1.32;;
30998;SDS011;20549;50.042;8.968;2023-11-19T14:18:00;2.25;;;1.47;;
30998;SDS011;20549;50.042;8.968;2023-11-19T14:20:27;2.90;;;1.57;;
30998;SDS011;20549;50.042;8.968;2023-11-19T14:22:53;4.75;;;2.08;;
30998;SDS011;20549;50.042;8.968;2023-11-19T14:25:20;4.22;;;1.82;;
30998;SDS011;20549;50.042;8.968;2023-11-19T14:27:47;4.30;;;2.00;;
30998;SDS011;20549;50.042;8.968;2023-11-19T14:30:13;3.05;;;1.70;;
30998;SDS011;20549;50.042;8.968;2023-11-19T14:32:41;3.25;;;1.55;;
30998;SDS011;20549;50.042;8.968;2023-11-19T14:35:06;4.50;;;1.82;;
30998;SDS011;20549;50.042;8.968;2023-11-19T14:37:33;4.60;;;1.90;;
30998;SDS011;20549;50.042;8.968;2023-11-19T14:40:00;5.67;;;2.58;;
30998;SDS011;20549;50.042;8.968;2023-11-19T14:42:26;4.25;;;1.80;;
30998;SDS011;20549;50.042;8.968;2023-11-19T14:44:53;7.12;;;2.52;;
30998;SDS011;20549;50.042;8.968;2023-11-19T14:47:19;6.00;;;2.55;;
30998;SDS011;20549;50.042;8.968;2023-11-19T14:49:46;4.20;;;2.12;;
30998;SDS011;20549;50.042;8.968;2023-11-19T14:52:13;3.12;;;2.15;;
30998;SDS011;20549;50.042;8.968;2023-11-19T14:54:39;3.85;;;1.72;;
30998;SDS011;20549;50.042;8.968;2023-11-19T14:57:06;3.77;;;1.85;;